sensor_id;sensor_type;location;lat;lon;timestamp;P1;durP1;ratioP1;P2;durP2;ratioP2
72427;SDS011;60419;48.880;18.036;2023-03-14T00:01:43;5.35;;;2.80;;
72427;SDS011;60419;48.880;18.036;2023-03-14T00:04:29;5.88;;;2.63;;
72427;SDS011;60419;48.880;18.036;2023-03-14T00:07:15;7.72;;;2.88;;
72427;SDS011;60419;48.880;18.036;2023-03-14T00:10:01;7.10;;;3.10;;
72427;SDS011;60419;48.880;18.036;2023-03-14T00:12:49;6.50;;;2.95;;
72427;SDS011;60419;48.880;18.036;2023-03-14T00:15:34;7.35;;;3.35;;
72427;SDS011;60419;48.880;18.036;2023-03-14T00:18:20;7.00;;;3.38;;
72427;SDS011;60419;48.880;18.036;2023-03-14T00:21:06;8.95;;;3.45;;
72427;SDS011;60419;48.880;18.036;2023-03-14T00:23:53;7.38;;;3.30;;
72427;SDS011;60419;48.880;18.036;2023-03-14T00:26:38;6.57;;;3.63;;
72427;SDS011;60419;48.880;18.036;2023-03-14T00:29:23;8.25;;;3.70;;
72427;SDS011;60419;48.880;18.036;2023-03-14T00:32:09;7.63;;;3.42;;
72427;SDS011;60419;48.880;18.036;2023-03-14T00:34:54;6.28;;;3.45;;
72427;SDS011;60419;48.880;18.036;2023-03-14T00:37:39;7.03;;;3.35;;
72427;SDS011;60419;48.880;18.036;2023-03-14T00:40:25;5.22;;;3.35;;
72427;SDS011;60419;48.880;18.036;2023-03-14T00:43:10;10.23;;;4.30;;
72427;SDS011;60419;48.880;18.036;2023-03-14T00:45:55;7.93;;;4.03;;
72427;SDS011;60419;48.880;18.036;2023-03-14T00:48:43;5.63;;;3.40;;
72427;SDS011;60419;48.880;18.036;2023-03-14T00:51:30;6.60;;;4.07;;
72427;SDS011;60419;48.880;18.036;2023-03-14T00:54:15;7.63;;;3.63;;
72427;SDS011;60419;48.880;18.036;2023-03-14T00:57:01;7.22;;;3.55;;
72427;SDS011;60419;48.880;18.036;2023-03-14T00:59:46;6.15;;;3.50;;
72427;SDS011;60419;48.880;18.036;2023-03-14T01:02:31;7.78;;;3.58;;
72427;SDS011;60419;48.880;18.036;2023-03-14T01:05:17;9.15;;;4.05;;
72427;SDS011;60419;48.880;18.036;2023-03-14T01:08:02;10.48;;;4.40;;
72427;SDS011;60419;48.880;18.036;2023-03-14T01:10:48;7.75;;;4.00;;
72427;SDS011;60419;48.880;18.036;2023-03-14T01:13:33;10.00;;;4.00;;
72427;SDS011;60419;48.880;18.036;2023-03-14T01:16:19;9.45;;;4.40;;
72427;SDS011;60419;48.880;18.036;2023-03-14T01:19:05;7.55;;;3.97;;
72427;SDS011;60419;48.880;18.036;2023-03-14T01:21:51;7.28;;;4.03;;
72427;SDS011;60419;48.880;18.036;2023-03-14T01:24:36;8.52;;;4.20;;
72427;SDS011;60419;48.880;18.036;2023-03-14T01:27:22;8.52;;;4.32;;
72427;SDS011;60419;48.880;18.036;2023-03-14T01:30:08;8.25;;;4.55;;
72427;SDS011;60419;48.880;18.036;2023-03-14T01:32:54;7.60;;;4.22;;
72427;SDS011;60419;48.880;18.036;2023-03-14T01:35:40;7.22;;;4.00;;
72427;SDS011;60419;48.880;18.036;2023-03-14T01:38:25;8.00;;;4.40;;
72427;SDS011;60419;48.880;18.036;2023-03-14T01:41:13;7.55;;;4.38;;
72427;SDS011;60419;48.880;18.036;2023-03-14T01:44:01;8.77;;;4.03;;
72427;SDS011;60419;48.880;18.036;2023-03-14T01:46:46;7.32;;;4.20;;
72427;SDS011;60419;48.880;18.036;2023-03-14T01:49:33;8.00;;;4.32;;
72427;SDS011;60419;48.880;18.036;2023-03-14T01:52:42;8.70;;;4.30;;
72427;SDS011;60419;48.880;18.036;2023-03-14T01:55:35;7.65;;;4.22;;
72427;SDS011;60419;48.880;18.036;2023-03-14T01:58:21;9.98;;;4.53;;
72427;SDS011;60419;48.880;18.036;2023-03-14T02:01:10;9.85;;;4.72;;
72427;SDS011;60419;48.880;18.036;2023-03-14T02:03:57;8.32;;;4.40;;
72427;SDS011;60419;48.880;18.036;2023-03-14T02:06:50;8.40;;;3.85;;
72427;SDS011;60419;48.880;18.036;2023-03-14T02:09:44;8.80;;;4.00;;
72427;SDS011;60419;48.880;18.036;2023-03-14T02:12:29;7.43;;;4.05;;
72427;SDS011;60419;48.880;18.036;2023-03-14T02:15:15;8.48;;;4.00;;
72427;SDS011;60419;48.880;18.036;2023-03-14T02:18:01;9.07;;;4.50;;
72427;SDS011;60419;48.880;18.036;2023-03-14T02:27:03;8.75;;;4.10;;
72427;SDS011;60419;48.880;18.036;2023-03-14T02:32:48;7.65;;;3.80;;
72427;SDS011;60419;48.880;18.036;2023-03-14T02:35:49;8.18;;;3.60;;
72427;SDS011;60419;48.880;18.036;2023-03-14T02:38:46;7.72;;;3.85;;
72427;SDS011;60419;48.880;18.036;2023-03-14T02:41:37;6.72;;;3.90;;
72427;SDS011;60419;48.880;18.036;2023-03-14T02:44:22;6.78;;;3.92;;
72427;SDS011;60419;48.880;18.036;2023-03-14T02:47:07;6.93;;;3.63;;
72427;SDS011;60419;48.880;18.036;2023-03-14T02:49:53;6.97;;;3.97;;
72427;SDS011;60419;48.880;18.036;2023-03-14T02:52:45;8.57;;;3.97;;
72427;SDS011;60419;48.880;18.036;2023-03-14T02:55:31;8.63;;;4.05;;
72427;SDS011;60419;48.880;18.036;2023-03-14T02:58:17;8.82;;;4.20;;
72427;SDS011;60419;48.880;18.036;2023-03-14T03:01:03;8.07;;;4.03;;
72427;SDS011;60419;48.880;18.036;2023-03-14T03:03:49;7.72;;;3.67;;
72427;SDS011;60419;48.880;18.036;2023-03-14T03:06:34;9.38;;;4.32;;
72427;SDS011;60419;48.880;18.036;2023-03-14T03:09:20;7.25;;;3.38;;
72427;SDS011;60419;48.880;18.036;2023-03-14T03:12:05;6.13;;;3.17;;
72427;SDS011;60419;48.880;18.036;2023-03-14T03:14:50;5.95;;;3.45;;
72427;SDS011;60419;48.880;18.036;2023-03-14T03:17:36;9.85;;;4.65;;
72427;SDS011;60419;48.880;18.036;2023-03-14T03:20:21;8.05;;;3.90;;
72427;SDS011;60419;48.880;18.036;2023-03-14T03:23:06;6.63;;;3.92;;
72427;SDS011;60419;48.880;18.036;2023-03-14T03:25:52;8.38;;;3.50;;
72427;SDS011;60419;48.880;18.036;2023-03-14T03:28:37;10.35;;;3.80;;
72427;SDS011;60419;48.880;18.036;2023-03-14T03:31:23;7.30;;;3.95;;
72427;SDS011;60419;48.880;18.036;2023-03-14T03:34:08;7.45;;;4.15;;
72427;SDS011;60419;48.880;18.036;2023-03-14T03:36:55;7.03;;;3.85;;
72427;SDS011;60419;48.880;18.036;2023-03-14T03:39:41;6.88;;;3.50;;
72427;SDS011;60419;48.880;18.036;2023-03-14T03:42:27;7.75;;;3.60;;
72427;SDS011;60419;48.880;18.036;2023-03-14T03:45:12;9.27;;;3.38;;
72427;SDS011;60419;48.880;18.036;2023-03-14T03:47:58;9.80;;;4.18;;
72427;SDS011;60419;48.880;18.036;2023-03-14T03:50:44;8.20;;;4.22;;
72427;SDS011;60419;48.880;18.036;2023-03-14T03:53:30;6.60;;;4.05;;
72427;SDS011;60419;48.880;18.036;2023-03-14T03:56:15;7.07;;;3.40;;
72427;SDS011;60419;48.880;18.036;2023-03-14T03:59:01;5.68;;;3.38;;
72427;SDS011;60419;48.880;18.036;2023-03-14T04:01:46;8.15;;;3.80;;
72427;SDS011;60419;48.880;18.036;2023-03-14T04:04:32;9.57;;;3.70;;
72427;SDS011;60419;48.880;18.036;2023-03-14T04:07:17;8.15;;;4.15;;
72427;SDS011;60419;48.880;18.036;2023-03-14T04:10:02;7.10;;;3.60;;
72427;SDS011;60419;48.880;18.036;2023-03-14T04:12:48;11.07;;;3.97;;
72427;SDS011;60419;48.880;18.036;2023-03-14T04:15:34;12.27;;;3.95;;
72427;SDS011;60419;48.880;18.036;2023-03-14T04:18:19;9.10;;;4.13;;
72427;SDS011;60419;48.880;18.036;2023-03-14T04:21:05;6.95;;;3.83;;
72427;SDS011;60419;48.880;18.036;2023-03-14T04:23:50;7.55;;;3.60;;
72427;SDS011;60419;48.880;18.036;2023-03-14T04:26:36;7.50;;;3.75;;
72427;SDS011;60419;48.880;18.036;2023-03-14T04:29:21;8.02;;;3.97;;
72427;SDS011;60419;48.880;18.036;2023-03-14T04:32:06;7.82;;;4.40;;
72427;SDS011;60419;48.880;18.036;2023-03-14T04:34:51;8.60;;;4.03;;
72427;SDS011;60419;48.880;18.036;2023-03-14T04:37:37;9.20;;;4.13;;
72427;SDS011;60419;48.880;18.036;2023-03-14T04:40:22;8.05;;;3.72;;
72427;SDS011;60419;48.880;18.036;2023-03-14T04:43:08;7.65;;;3.88;;
72427;SDS011;60419;48.880;18.036;2023-03-14T04:45:55;9.63;;;4.55;;
72427;SDS011;60419;48.880;18.036;2023-03-14T04:48:42;7.80;;;4.03;;
72427;SDS011;60419;48.880;18.036;2023-03-14T04:51:27;9.93;;;4.13;;
72427;SDS011;60419;48.880;18.036;2023-03-14T04:54:12;8.73;;;3.90;;
72427;SDS011;60419;48.880;18.036;2023-03-14T04:56:58;7.05;;;3.83;;
72427;SDS011;60419;48.880;18.036;2023-03-14T04:59:43;7.32;;;3.38;;
72427;SDS011;60419;48.880;18.036;2023-03-14T05:02:29;9.63;;;4.00;;
72427;SDS011;60419;48.880;18.036;2023-03-14T05:05:14;7.53;;;4.07;;
72427;SDS011;60419;48.880;18.036;2023-03-14T05:07:59;7.80;;;4.20;;
72427;SDS011;60419;48.880;18.036;2023-03-14T05:10:50;7.63;;;3.90;;
72427;SDS011;60419;48.880;18.036;2023-03-14T05:13:37;6.20;;;3.80;;
72427;SDS011;60419;48.880;18.036;2023-03-14T05:16:22;8.00;;;3.45;;
72427;SDS011;60419;48.880;18.036;2023-03-14T05:19:07;7.63;;;3.72;;
72427;SDS011;60419;48.880;18.036;2023-03-14T05:21:53;6.38;;;3.80;;
72427;SDS011;60419;48.880;18.036;2023-03-14T05:24:38;7.40;;;3.30;;
72427;SDS011;60419;48.880;18.036;2023-03-14T05:27:23;7.43;;;3.85;;
72427;SDS011;60419;48.880;18.036;2023-03-14T05:30:09;6.88;;;3.47;;
72427;SDS011;60419;48.880;18.036;2023-03-14T05:32:55;8.95;;;3.63;;
72427;SDS011;60419;48.880;18.036;2023-03-14T05:35:40;7.55;;;3.35;;
72427;SDS011;60419;48.880;18.036;2023-03-14T05:38:27;8.10;;;3.67;;
72427;SDS011;60419;48.880;18.036;2023-03-14T05:41:12;10.07;;;3.80;;
72427;SDS011;60419;48.880;18.036;2023-03-14T05:43:57;7.30;;;3.60;;
72427;SDS011;60419;48.880;18.036;2023-03-14T05:46:43;8.73;;;3.83;;
72427;SDS011;60419;48.880;18.036;2023-03-14T05:49:28;6.65;;;3.30;;
72427;SDS011;60419;48.880;18.036;2023-03-14T05:52:13;6.82;;;3.38;;
72427;SDS011;60419;48.880;18.036;2023-03-14T05:54:59;9.93;;;4.43;;
72427;SDS011;60419;48.880;18.036;2023-03-14T05:57:44;7.93;;;3.72;;
72427;SDS011;60419;48.880;18.036;2023-03-14T06:00:29;6.18;;;3.20;;
72427;SDS011;60419;48.880;18.036;2023-03-14T06:03:15;8.20;;;3.65;;
72427;SDS011;60419;48.880;18.036;2023-03-14T06:06:00;7.10;;;3.22;;
72427;SDS011;60419;48.880;18.036;2023-03-14T06:08:45;7.80;;;3.90;;
72427;SDS011;60419;48.880;18.036;2023-03-14T06:11:31;6.88;;;3.40;;
72427;SDS011;60419;48.880;18.036;2023-03-14T06:14:16;8.40;;;3.65;;
72427;SDS011;60419;48.880;18.036;2023-03-14T06:17:02;5.97;;;3.38;;
72427;SDS011;60419;48.880;18.036;2023-03-14T06:19:47;8.60;;;3.60;;
72427;SDS011;60419;48.880;18.036;2023-03-14T06:22:32;7.22;;;3.20;;
72427;SDS011;60419;48.880;18.036;2023-03-14T06:25:18;6.45;;;3.13;;
72427;SDS011;60419;48.880;18.036;2023-03-14T06:28:03;6.25;;;3.17;;
72427;SDS011;60419;48.880;18.036;2023-03-14T06:30:49;5.38;;;3.00;;
72427;SDS011;60419;48.880;18.036;2023-03-14T06:33:34;6.85;;;3.60;;
72427;SDS011;60419;48.880;18.036;2023-03-14T06:36:19;7.70;;;3.45;;
72427;SDS011;60419;48.880;18.036;2023-03-14T06:39:05;7.25;;;3.65;;
72427;SDS011;60419;48.880;18.036;2023-03-14T06:41:50;9.80;;;3.50;;
72427;SDS011;60419;48.880;18.036;2023-03-14T06:44:36;8.60;;;2.95;;
72427;SDS011;60419;48.880;18.036;2023-03-14T06:47:21;6.65;;;2.95;;
72427;SDS011;60419;48.880;18.036;2023-03-14T06:50:07;8.90;;;3.42;;
72427;SDS011;60419;48.880;18.036;2023-03-14T06:52:54;6.88;;;2.97;;
72427;SDS011;60419;48.880;18.036;2023-03-14T06:55:39;8.10;;;3.50;;
72427;SDS011;60419;48.880;18.036;2023-03-14T06:58:24;5.88;;;2.53;;
72427;SDS011;60419;48.880;18.036;2023-03-14T07:01:15;8.18;;;2.65;;
72427;SDS011;60419;48.880;18.036;2023-03-14T07:04:06;9.32;;;3.20;;
72427;SDS011;60419;48.880;18.036;2023-03-14T07:06:51;9.25;;;3.00;;
72427;SDS011;60419;48.880;18.036;2023-03-14T07:09:36;6.97;;;3.17;;
72427;SDS011;60419;48.880;18.036;2023-03-14T07:12:22;6.82;;;3.13;;
72427;SDS011;60419;48.880;18.036;2023-03-14T07:15:08;9.48;;;3.63;;
72427;SDS011;60419;48.880;18.036;2023-03-14T07:17:53;7.22;;;3.20;;
72427;SDS011;60419;48.880;18.036;2023-03-14T07:20:39;5.63;;;2.60;;
72427;SDS011;60419;48.880;18.036;2023-03-14T07:23:24;7.85;;;3.00;;
72427;SDS011;60419;48.880;18.036;2023-03-14T07:26:10;5.97;;;3.13;;
72427;SDS011;60419;48.880;18.036;2023-03-14T07:28:55;6.32;;;3.15;;
72427;SDS011;60419;48.880;18.036;2023-03-14T07:31:41;6.57;;;3.10;;
72427;SDS011;60419;48.880;18.036;2023-03-14T07:34:26;7.15;;;2.92;;
72427;SDS011;60419;48.880;18.036;2023-03-14T07:37:11;5.85;;;2.92;;
72427;SDS011;60419;48.880;18.036;2023-03-14T07:39:57;7.22;;;3.35;;
72427;SDS011;60419;48.880;18.036;2023-03-14T07:42:42;6.57;;;2.80;;
72427;SDS011;60419;48.880;18.036;2023-03-14T07:45:28;6.50;;;3.45;;
72427;SDS011;60419;48.880;18.036;2023-03-14T07:48:13;8.25;;;2.97;;
72427;SDS011;60419;48.880;18.036;2023-03-14T07:50:58;6.55;;;3.17;;
72427;SDS011;60419;48.880;18.036;2023-03-14T07:53:44;9.80;;;3.05;;
72427;SDS011;60419;48.880;18.036;2023-03-14T07:56:30;6.18;;;2.90;;
72427;SDS011;60419;48.880;18.036;2023-03-14T07:59:16;6.57;;;2.72;;
72427;SDS011;60419;48.880;18.036;2023-03-14T08:02:01;6.70;;;3.22;;
72427;SDS011;60419;48.880;18.036;2023-03-14T08:04:47;6.97;;;2.85;;
72427;SDS011;60419;48.880;18.036;2023-03-14T08:07:32;6.53;;;3.15;;
72427;SDS011;60419;48.880;18.036;2023-03-14T08:10:17;6.32;;;3.03;;
72427;SDS011;60419;48.880;18.036;2023-03-14T08:13:06;6.68;;;2.90;;
72427;SDS011;60419;48.880;18.036;2023-03-14T08:15:51;5.05;;;2.47;;
72427;SDS011;60419;48.880;18.036;2023-03-14T08:18:36;10.93;;;3.50;;
72427;SDS011;60419;48.880;18.036;2023-03-14T08:21:21;7.13;;;3.20;;
72427;SDS011;60419;48.880;18.036;2023-03-14T08:24:07;6.90;;;3.30;;
72427;SDS011;60419;48.880;18.036;2023-03-14T08:26:53;7.90;;;3.40;;
72427;SDS011;60419;48.880;18.036;2023-03-14T08:29:38;5.53;;;3.00;;
72427;SDS011;60419;48.880;18.036;2023-03-14T08:32:25;6.60;;;3.15;;
72427;SDS011;60419;48.880;18.036;2023-03-14T08:35:10;8.35;;;3.10;;
72427;SDS011;60419;48.880;18.036;2023-03-14T08:37:56;7.10;;;2.65;;
72427;SDS011;60419;48.880;18.036;2023-03-14T08:40:41;7.90;;;3.30;;
72427;SDS011;60419;48.880;18.036;2023-03-14T08:43:27;5.13;;;2.80;;
72427;SDS011;60419;48.880;18.036;2023-03-14T08:46:13;7.55;;;3.25;;
72427;SDS011;60419;48.880;18.036;2023-03-14T08:48:58;6.15;;;3.03;;
72427;SDS011;60419;48.880;18.036;2023-03-14T08:51:43;5.63;;;2.80;;
72427;SDS011;60419;48.880;18.036;2023-03-14T08:54:29;5.18;;;2.80;;
72427;SDS011;60419;48.880;18.036;2023-03-14T08:57:14;6.20;;;3.10;;
72427;SDS011;60419;48.880;18.036;2023-03-14T09:00:00;6.22;;;3.13;;
72427;SDS011;60419;48.880;18.036;2023-03-14T09:02:45;6.43;;;3.03;;
72427;SDS011;60419;48.880;18.036;2023-03-14T09:05:32;5.65;;;2.92;;
72427;SDS011;60419;48.880;18.036;2023-03-14T09:08:19;5.28;;;2.72;;
72427;SDS011;60419;48.880;18.036;2023-03-14T09:11:06;6.68;;;2.78;;
72427;SDS011;60419;48.880;18.036;2023-03-14T09:13:53;6.22;;;2.53;;
72427;SDS011;60419;48.880;18.036;2023-03-14T09:16:38;8.50;;;3.10;;
72427;SDS011;60419;48.880;18.036;2023-03-14T09:19:23;5.22;;;2.70;;
72427;SDS011;60419;48.880;18.036;2023-03-14T09:22:09;7.13;;;3.13;;
72427;SDS011;60419;48.880;18.036;2023-03-14T09:24:54;6.72;;;2.92;;
72427;SDS011;60419;48.880;18.036;2023-03-14T09:27:39;6.18;;;2.50;;
72427;SDS011;60419;48.880;18.036;2023-03-14T09:30:25;8.02;;;2.72;;
72427;SDS011;60419;48.880;18.036;2023-03-14T09:33:10;7.82;;;2.75;;
72427;SDS011;60419;48.880;18.036;2023-03-14T09:35:57;6.47;;;3.03;;
72427;SDS011;60419;48.880;18.036;2023-03-14T09:38:43;4.82;;;2.58;;
72427;SDS011;60419;48.880;18.036;2023-03-14T09:41:33;5.80;;;3.08;;
72427;SDS011;60419;48.880;18.036;2023-03-14T09:44:24;6.65;;;3.42;;
72427;SDS011;60419;48.880;18.036;2023-03-14T09:47:13;7.15;;;3.53;;
72427;SDS011;60419;48.880;18.036;2023-03-14T09:50:01;5.93;;;2.40;;
72427;SDS011;60419;48.880;18.036;2023-03-14T09:52:49;6.65;;;2.70;;
72427;SDS011;60419;48.880;18.036;2023-03-14T09:55:42;4.97;;;2.47;;
72427;SDS011;60419;48.880;18.036;2023-03-14T09:58:29;6.28;;;3.00;;
72427;SDS011;60419;48.880;18.036;2023-03-14T10:01:15;9.15;;;3.33;;
72427;SDS011;60419;48.880;18.036;2023-03-14T10:04:12;5.47;;;3.10;;
72427;SDS011;60419;48.880;18.036;2023-03-14T10:07:02;8.38;;;3.70;;
72427;SDS011;60419;48.880;18.036;2023-03-14T10:09:48;10.02;;;3.83;;
72427;SDS011;60419;48.880;18.036;2023-03-14T10:12:35;6.75;;;3.50;;
72427;SDS011;60419;48.880;18.036;2023-03-14T10:15:24;6.93;;;3.38;;
72427;SDS011;60419;48.880;18.036;2023-03-14T10:18:12;9.02;;;3.83;;
72427;SDS011;60419;48.880;18.036;2023-03-14T10:21:02;6.55;;;3.22;;
72427;SDS011;60419;48.880;18.036;2023-03-14T10:23:51;6.70;;;3.28;;
72427;SDS011;60419;48.880;18.036;2023-03-14T10:26:37;7.63;;;3.03;;
72427;SDS011;60419;48.880;18.036;2023-03-14T10:29:22;7.45;;;3.28;;
72427;SDS011;60419;48.880;18.036;2023-03-14T10:32:10;9.15;;;3.58;;
72427;SDS011;60419;48.880;18.036;2023-03-14T10:35:07;5.63;;;2.70;;
72427;SDS011;60419;48.880;18.036;2023-03-14T10:38:19;6.82;;;2.95;;
72427;SDS011;60419;48.880;18.036;2023-03-14T10:41:20;6.53;;;3.22;;
72427;SDS011;60419;48.880;18.036;2023-03-14T10:44:10;7.38;;;2.83;;
72427;SDS011;60419;48.880;18.036;2023-03-14T10:47:02;5.53;;;2.92;;
72427;SDS011;60419;48.880;18.036;2023-03-14T10:49:49;7.18;;;2.80;;
72427;SDS011;60419;48.880;18.036;2023-03-14T10:52:34;6.18;;;2.70;;
72427;SDS011;60419;48.880;18.036;2023-03-14T10:55:20;8.27;;;3.00;;
72427;SDS011;60419;48.880;18.036;2023-03-14T10:58:16;8.63;;;3.15;;
72427;SDS011;60419;48.880;18.036;2023-03-14T11:01:15;6.50;;;3.40;;
72427;SDS011;60419;48.880;18.036;2023-03-14T11:07:37;7.13;;;3.28;;
72427;SDS011;60419;48.880;18.036;2023-03-14T11:10:32;5.50;;;2.78;;
72427;SDS011;60419;48.880;18.036;2023-03-14T11:16:53;7.72;;;2.80;;
72427;SDS011;60419;48.880;18.036;2023-03-14T11:19:43;6.80;;;2.90;;
72427;SDS011;60419;48.880;18.036;2023-03-14T11:23:06;4.97;;;2.83;;
72427;SDS011;60419;48.880;18.036;2023-03-14T11:26:01;7.55;;;3.08;;
72427;SDS011;60419;48.880;18.036;2023-03-14T11:28:49;7.33;;;3.20;;
72427;SDS011;60419;48.880;18.036;2023-03-14T11:31:36;6.53;;;2.78;;
72427;SDS011;60419;48.880;18.036;2023-03-14T11:34:29;6.22;;;3.33;;
72427;SDS011;60419;48.880;18.036;2023-03-14T11:37:34;7.20;;;3.42;;
72427;SDS011;60419;48.880;18.036;2023-03-14T11:40:23;7.97;;;3.50;;
72427;SDS011;60419;48.880;18.036;2023-03-14T11:43:12;6.90;;;3.40;;
72427;SDS011;60419;48.880;18.036;2023-03-14T11:46:21;6.38;;;3.17;;
72427;SDS011;60419;48.880;18.036;2023-03-14T11:49:16;9.00;;;2.95;;
72427;SDS011;60419;48.880;18.036;2023-03-14T11:52:41;7.47;;;3.38;;
72427;SDS011;60419;48.880;18.036;2023-03-14T11:55:34;7.13;;;3.40;;
72427;SDS011;60419;48.880;18.036;2023-03-14T11:58:28;7.60;;;3.53;;
72427;SDS011;60419;48.880;18.036;2023-03-14T12:01:16;6.95;;;3.30;;
72427;SDS011;60419;48.880;18.036;2023-03-14T12:04:14;9.53;;;3.90;;
72427;SDS011;60419;48.880;18.036;2023-03-14T12:07:29;7.28;;;4.15;;
72427;SDS011;60419;48.880;18.036;2023-03-14T12:10:20;6.15;;;3.70;;
72427;SDS011;60419;48.880;18.036;2023-03-14T12:13:07;7.40;;;3.80;;
72427;SDS011;60419;48.880;18.036;2023-03-14T12:15:56;10.35;;;4.30;;
72427;SDS011;60419;48.880;18.036;2023-03-14T12:18:43;9.23;;;3.92;;
72427;SDS011;60419;48.880;18.036;2023-03-14T12:21:48;5.82;;;3.40;;
72427;SDS011;60419;48.880;18.036;2023-03-14T12:25:14;7.57;;;4.10;;
72427;SDS011;60419;48.880;18.036;2023-03-14T12:43:03;9.73;;;5.22;;
72427;SDS011;60419;48.880;18.036;2023-03-14T12:49:08;8.55;;;4.50;;
72427;SDS011;60419;48.880;18.036;2023-03-14T12:51:58;10.25;;;4.20;;
72427;SDS011;60419;48.880;18.036;2023-03-14T12:57:44;9.85;;;4.95;;
72427;SDS011;60419;48.880;18.036;2023-03-14T13:00:41;8.23;;;4.88;;
72427;SDS011;60419;48.880;18.036;2023-03-14T13:03:35;9.40;;;4.60;;
72427;SDS011;60419;48.880;18.036;2023-03-14T13:12:18;14.50;;;5.60;;
72427;SDS011;60419;48.880;18.036;2023-03-14T13:15:14;11.80;;;5.32;;
72427;SDS011;60419;48.880;18.036;2023-03-14T13:18:26;14.70;;;5.65;;
72427;SDS011;60419;48.880;18.036;2023-03-14T13:21:19;11.40;;;6.22;;
72427;SDS011;60419;48.880;18.036;2023-03-14T13:24:23;12.10;;;6.63;;
72427;SDS011;60419;48.880;18.036;2023-03-14T13:27:20;10.02;;;5.85;;
72427;SDS011;60419;48.880;18.036;2023-03-14T13:30:15;10.80;;;6.65;;
72427;SDS011;60419;48.880;18.036;2023-03-14T13:33:03;10.80;;;6.30;;
72427;SDS011;60419;48.880;18.036;2023-03-14T13:35:59;9.20;;;5.70;;
72427;SDS011;60419;48.880;18.036;2023-03-14T13:38:55;7.73;;;4.03;;
72427;SDS011;60419;48.880;18.036;2023-03-14T13:41:42;7.95;;;4.30;;
72427;SDS011;60419;48.880;18.036;2023-03-14T13:44:31;7.50;;;4.10;;
72427;SDS011;60419;48.880;18.036;2023-03-14T13:47:20;8.18;;;4.40;;
72427;SDS011;60419;48.880;18.036;2023-03-14T13:50:16;6.95;;;4.38;;
72427;SDS011;60419;48.880;18.036;2023-03-14T13:53:03;8.43;;;3.85;;
72427;SDS011;60419;48.880;18.036;2023-03-14T13:55:49;6.47;;;3.72;;
72427;SDS011;60419;48.880;18.036;2023-03-14T13:58:35;6.85;;;3.95;;
72427;SDS011;60419;48.880;18.036;2023-03-14T14:01:35;9.10;;;3.97;;
72427;SDS011;60419;48.880;18.036;2023-03-14T14:04:23;11.10;;;4.15;;
72427;SDS011;60419;48.880;18.036;2023-03-14T14:07:13;7.80;;;3.97;;
72427;SDS011;60419;48.880;18.036;2023-03-14T14:10:03;9.77;;;4.63;;
72427;SDS011;60419;48.880;18.036;2023-03-14T14:12:53;5.72;;;3.85;;
72427;SDS011;60419;48.880;18.036;2023-03-14T14:15:45;7.63;;;4.30;;
72427;SDS011;60419;48.880;18.036;2023-03-14T14:18:33;7.15;;;3.95;;
72427;SDS011;60419;48.880;18.036;2023-03-14T14:21:20;7.80;;;4.05;;
72427;SDS011;60419;48.880;18.036;2023-03-14T14:24:07;6.45;;;3.58;;
72427;SDS011;60419;48.880;18.036;2023-03-14T14:27:01;7.72;;;4.57;;
72427;SDS011;60419;48.880;18.036;2023-03-14T14:29:59;9.73;;;4.82;;
72427;SDS011;60419;48.880;18.036;2023-03-14T14:33:19;9.95;;;4.68;;
72427;SDS011;60419;48.880;18.036;2023-03-14T14:36:11;9.07;;;3.95;;
72427;SDS011;60419;48.880;18.036;2023-03-14T14:39:04;8.40;;;3.80;;
72427;SDS011;60419;48.880;18.036;2023-03-14T14:42:02;8.38;;;4.50;;
72427;SDS011;60419;48.880;18.036;2023-03-14T14:44:47;7.45;;;4.35;;
72427;SDS011;60419;48.880;18.036;2023-03-14T14:47:36;9.23;;;4.75;;
72427;SDS011;60419;48.880;18.036;2023-03-14T14:50:39;12.73;;;5.80;;
72427;SDS011;60419;48.880;18.036;2023-03-14T14:53:41;8.63;;;5.00;;
72427;SDS011;60419;48.880;18.036;2023-03-14T14:56:28;7.80;;;4.72;;
72427;SDS011;60419;48.880;18.036;2023-03-14T14:59:18;9.57;;;4.97;;
72427;SDS011;60419;48.880;18.036;2023-03-14T15:02:09;7.70;;;4.70;;
72427;SDS011;60419;48.880;18.036;2023-03-14T15:05:28;9.65;;;5.00;;
72427;SDS011;60419;48.880;18.036;2023-03-14T15:08:15;7.75;;;4.68;;
72427;SDS011;60419;48.880;18.036;2023-03-14T15:11:01;9.32;;;5.00;;
72427;SDS011;60419;48.880;18.036;2023-03-14T15:13:46;6.35;;;4.20;;
72427;SDS011;60419;48.880;18.036;2023-03-14T15:16:31;7.70;;;4.15;;
72427;SDS011;60419;48.880;18.036;2023-03-14T15:19:21;7.03;;;3.90;;
72427;SDS011;60419;48.880;18.036;2023-03-14T15:22:11;5.82;;;3.72;;
72427;SDS011;60419;48.880;18.036;2023-03-14T15:24:58;6.40;;;3.25;;
72427;SDS011;60419;48.880;18.036;2023-03-14T15:27:43;5.90;;;3.45;;
72427;SDS011;60419;48.880;18.036;2023-03-14T15:30:29;8.25;;;3.70;;
72427;SDS011;60419;48.880;18.036;2023-03-14T15:33:14;7.90;;;4.60;;
72427;SDS011;60419;48.880;18.036;2023-03-14T15:36:00;7.15;;;4.35;;
72427;SDS011;60419;48.880;18.036;2023-03-14T15:38:45;8.10;;;4.32;;
72427;SDS011;60419;48.880;18.036;2023-03-14T15:41:31;6.90;;;4.10;;
72427;SDS011;60419;48.880;18.036;2023-03-14T15:44:16;6.25;;;4.00;;
72427;SDS011;60419;48.880;18.036;2023-03-14T15:47:02;7.35;;;4.13;;
72427;SDS011;60419;48.880;18.036;2023-03-14T15:49:48;9.00;;;3.80;;
72427;SDS011;60419;48.880;18.036;2023-03-14T15:52:33;6.55;;;3.80;;
72427;SDS011;60419;48.880;18.036;2023-03-14T15:55:18;7.05;;;3.80;;
72427;SDS011;60419;48.880;18.036;2023-03-14T15:58:04;8.68;;;4.15;;
72427;SDS011;60419;48.880;18.036;2023-03-14T16:00:49;5.32;;;3.53;;
72427;SDS011;60419;48.880;18.036;2023-03-14T16:03:35;5.47;;;2.92;;
72427;SDS011;60419;48.880;18.036;2023-03-14T16:06:20;5.13;;;2.80;;
72427;SDS011;60419;48.880;18.036;2023-03-14T16:09:06;4.78;;;2.60;;
72427;SDS011;60419;48.880;18.036;2023-03-14T16:11:51;5.85;;;2.60;;
72427;SDS011;60419;48.880;18.036;2023-03-14T16:14:36;6.30;;;2.10;;
72427;SDS011;60419;48.880;18.036;2023-03-14T16:17:27;3.67;;;1.60;;
72427;SDS011;60419;48.880;18.036;2023-03-14T16:20:12;4.30;;;1.88;;
72427;SDS011;60419;48.880;18.036;2023-03-14T16:22:58;8.32;;;3.78;;
72427;SDS011;60419;48.880;18.036;2023-03-14T16:25:43;6.28;;;3.20;;
72427;SDS011;60419;48.880;18.036;2023-03-14T16:28:29;4.57;;;2.75;;
72427;SDS011;60419;48.880;18.036;2023-03-14T16:31:16;5.95;;;2.63;;
72427;SDS011;60419;48.880;18.036;2023-03-14T16:34:02;4.78;;;2.72;;
72427;SDS011;60419;48.880;18.036;2023-03-14T16:36:48;3.80;;;2.22;;
72427;SDS011;60419;48.880;18.036;2023-03-14T16:39:36;4.00;;;2.30;;
72427;SDS011;60419;48.880;18.036;2023-03-14T16:42:22;4.90;;;2.80;;
72427;SDS011;60419;48.880;18.036;2023-03-14T16:45:08;5.75;;;2.65;;
72427;SDS011;60419;48.880;18.036;2023-03-14T16:47:54;4.10;;;2.50;;
72427;SDS011;60419;48.880;18.036;2023-03-14T16:50:39;4.18;;;2.40;;
72427;SDS011;60419;48.880;18.036;2023-03-14T16:53:25;4.45;;;2.67;;
72427;SDS011;60419;48.880;18.036;2023-03-14T16:56:13;5.10;;;2.30;;
72427;SDS011;60419;48.880;18.036;2023-03-14T16:58:59;3.15;;;1.80;;
72427;SDS011;60419;48.880;18.036;2023-03-14T17:01:44;6.05;;;2.35;;
72427;SDS011;60419;48.880;18.036;2023-03-14T17:04:29;3.95;;;2.38;;
72427;SDS011;60419;48.880;18.036;2023-03-14T17:07:15;5.72;;;2.72;;
72427;SDS011;60419;48.880;18.036;2023-03-14T17:10:00;4.80;;;2.42;;
72427;SDS011;60419;48.880;18.036;2023-03-14T17:12:47;3.90;;;2.78;;
72427;SDS011;60419;48.880;18.036;2023-03-14T17:15:32;5.88;;;3.40;;
72427;SDS011;60419;48.880;18.036;2023-03-14T17:18:17;6.55;;;3.58;;
72427;SDS011;60419;48.880;18.036;2023-03-14T17:21:03;5.88;;;3.97;;